Time;durP1;ratioP1;P1;durP2;ratioP2;P2;SDS_P1;SDS_P2;PMS_P1;PMS_P2;Temp;Humidity;BMP_temperature;BMP_pressure;BME280_temperature;BME280_humidity;BME280_pressure;Samples;Min_cycle;Max_cycle;Signal;HPM_P1;HPM_P2
2021/07/27 00:02:08;;;;;;;27.40;15.17;;;23.40;88.90;;;;;;5043388;28;20218;-71
2021/07/27 00:04:36;;;;;;;24.93;15.27;;;23.40;89.00;;;;;;5041711;28;20561;-71
2021/07/27 00:07:03;;;;;;;25.33;14.80;;;23.40;89.10;;;;;;5043568;28;20214;-71
2021/07/27 00:09:30;;;;;;;25.63;14.93;;;23.40;89.20;;;;;;5040192;28;20642;-71
2021/07/27 00:11:57;;;;;;;18.13;14.93;;;23.40;89.30;;;;;;5040470;28;20285;-71
2021/07/27 00:14:24;;;;;;;20.70;14.20;;;23.40;89.30;;;;;;5036569;28;20238;-71
2021/07/27 00:16:51;;;;;;;21.83;15.83;;;23.50;89.30;;;;;;5036220;28;20215;-71
2021/07/27 00:19:18;;;;;;;23.00;15.27;;;23.50;89.30;;;;;;5044056;28;20222;-71
2021/07/27 00:21:45;;;;;;;27.13;15.90;;;23.40;89.30;;;;;;5040547;28;20222;-71
2021/07/27 00:24:12;;;;;;;22.50;16.87;;;23.40;89.40;;;;;;5043503;28;20279;-71
2021/07/27 00:26:39;;;;;;;26.80;16.40;;;23.40;89.60;;;;;;5043513;28;20211;-71
2021/07/27 00:29:06;;;;;;;22.13;16.27;;;23.50;89.60;;;;;;5041366;28;20222;-71
2021/07/27 00:31:33;;;;;;;24.00;17.13;;;23.50;89.60;;;;;;5042910;28;20237;-71
2021/07/27 00:34:01;;;;;;;27.13;16.47;;;23.50;89.70;;;;;;5041707;28;20211;-71
2021/07/27 00:36:27;;;;;;;23.27;17.57;;;23.50;89.70;;;;;;5043225;28;20595;-71
2021/07/27 00:38:56;;;;;;;23.20;15.93;;;23.50;89.80;;;;;;5037464;28;20245;-71
2021/07/27 00:41:23;;;;;;;21.20;15.80;;;23.50;89.80;;;;;;5042795;28;20219;-71
2021/07/27 00:43:50;;;;;;;21.77;16.97;;;23.50;89.80;;;;;;5041897;28;20206;-71
2021/07/27 00:46:17;;;;;;;20.73;16.57;;;23.50;89.90;;;;;;5042700;28;20686;-71
2021/07/27 00:48:44;;;;;;;24.37;18.00;;;23.50;89.90;;;;;;5041866;28;20292;-71
2021/07/27 00:51:11;;;;;;;25.00;16.97;;;23.50;89.90;;;;;;5041574;28;20250;-71
2021/07/27 00:53:39;;;;;;;22.17;16.77;;;23.50;89.90;;;;;;5041982;28;20207;-71
2021/07/27 00:56:07;;;;;;;28.47;19.60;;;23.50;89.90;;;;;;5041288;28;20215;-71
2021/07/27 00:58:34;;;;;;;24.33;18.87;;;23.50;90.20;;;;;;5041976;28;20253;-71
2021/07/27 01:01:01;;;;;;;26.93;18.50;;;23.50;90.00;;;;;;5042364;28;20264;-71
2021/07/27 01:03:29;;;;;;;23.90;16.77;;;23.50;90.00;;;;;;5045900;28;20246;-71
2021/07/27 01:06:02;;;;;;;27.87;15.70;;;23.50;90.00;;;;;;5044792;28;20234;-71
2021/07/27 01:08:30;;;;;;;19.70;16.53;;;23.50;90.00;;;;;;5044603;28;20210;-71
2021/07/27 01:10:57;;;;;;;24.67;18.17;;;23.60;89.90;;;;;;5045545;28;20297;-71
2021/07/27 01:13:24;;;;;;;28.13;17.70;;;23.60;89.70;;;;;;5045325;28;20250;-72
2021/07/27 01:15:52;;;;;;;27.37;18.50;;;23.60;89.60;;;;;;5044919;28;20584;-72
2021/07/27 01:18:25;;;;;;;26.83;17.70;;;23.70;89.50;;;;;;5045230;28;20214;-72
2021/07/27 01:40:06;;;;;;;20.00;16.47;;;23.70;89.30;;;;;;5044369;28;20682;-72
2021/07/27 01:42:39;;;;;;;24.27;16.83;;;23.70;89.30;;;;;;5044647;28;20219;-72
2021/07/27 01:45:13;;;;;;;23.80;16.67;;;23.70;89.20;;;;;;5045440;28;20215;-72
2021/07/27 01:47:39;;;;;;;22.70;16.93;;;23.70;89.10;;;;;;5042242;28;20215;-72
2021/07/27 01:50:07;;;;;;;25.93;17.77;;;23.70;88.90;;;;;;5045909;28;20225;-72
2021/07/27 01:52:34;;;;;;;22.83;18.03;;;23.70;88.70;;;;;;5043504;28;20231;-72
2021/07/27 01:55:07;;;;;;;21.73;17.73;;;23.70;88.80;;;;;;5045508;28;20322;-72
2021/07/27 01:57:34;;;;;;;25.23;19.30;;;23.70;88.90;;;;;;5038924;28;20246;-72
2021/07/27 02:00:03;;;;;;;27.43;18.23;;;23.70;89.00;;;;;;5046086;28;20225;-72
2021/07/27 02:02:30;;;;;;;21.07;17.43;;;23.70;89.00;;;;;;5042549;28;20599;-72
2021/07/27 02:04:57;;;;;;;19.87;16.57;;;23.70;89.20;;;;;;5045901;28;20233;-72
2021/07/27 02:07:24;;;;;;;20.70;16.00;;;23.70;89.30;;;;;;5046367;28;20260;-72
2021/07/27 02:09:59;;;;;;;22.53;16.37;;;23.70;89.10;;;;;;5042283;28;20456;-72
2021/07/27 02:12:34;;;;;;;21.57;16.63;;;23.80;89.10;;;;;;5038231;28;20239;-72
2021/07/27 02:15:05;;;;;;;28.17;16.90;;;23.80;88.90;;;;;;5040773;28;20211;-72
2021/07/27 02:17:33;;;;;;;25.20;16.23;;;23.80;88.80;;;;;;5044577;28;20218;-72
2021/07/27 02:20:01;;;;;;;26.87;16.27;;;23.80;88.60;;;;;;5043383;28;20580;-72
2021/07/27 02:22:31;;;;;;;26.47;17.10;;;23.80;88.80;;;;;;5044620;28;20221;-72
2021/07/27 02:24:58;;;;;;;21.03;16.97;;;23.70;88.80;;;;;;5046089;28;20222;-72
2021/07/27 02:27:28;;;;;;;27.43;17.13;;;23.70;89.40;;;;;;5043573;28;20215;-72
2021/07/27 02:29:57;;;;;;;27.90;17.90;;;23.70;88.80;;;;;;5043506;28;20222;-72
2021/07/27 02:32:24;;;;;;;23.33;17.63;;;23.60;88.70;;;;;;5038317;28;20231;-72
2021/07/27 02:34:51;;;;;;;24.13;17.37;;;23.60;88.90;;;;;;5043910;28;20203;-72
2021/07/27 02:37:18;;;;;;;21.40;17.17;;;23.60;89.00;;;;;;5042213;28;20211;-72
2021/07/27 02:39:45;;;;;;;25.27;18.07;;;23.50;89.30;;;;;;5039675;28;20246;-72
2021/07/27 02:42:12;;;;;;;27.10;18.43;;;23.50;89.40;;;;;;5043311;28;20218;-72
2021/07/27 02:44:39;;;;;;;21.87;17.60;;;23.50;89.50;;;;;;5042840;28;20280;-72
2021/07/27 02:47:06;;;;;;;28.23;20.57;;;23.50;89.50;;;;;;5043400;28;20218;-72
2021/07/27 02:49:33;;;;;;;27.40;19.23;;;23.50;89.50;;;;;;5044435;28;20658;-72
2021/07/27 02:52:00;;;;;;;29.90;19.87;;;23.60;89.50;;;;;;5041962;28;20239;-72
2021/07/27 02:54:27;;;;;;;25.50;18.67;;;23.60;89.50;;;;;;5044666;28;20300;-72
2021/07/27 02:56:55;;;;;;;23.77;17.70;;;23.60;89.50;;;;;;5041608;28;20233;-72
2021/07/27 02:59:22;;;;;;;23.87;17.77;;;23.60;89.60;;;;;;5045206;28;20211;-72
2021/07/27 03:01:49;;;;;;;27.23;18.40;;;23.60;89.50;;;;;;5041622;28;20284;-72
2021/07/27 03:04:19;;;;;;;20.90;17.20;;;23.70;89.60;;;;;;5037674;28;20265;-72
2021/07/27 03:06:47;;;;;;;22.97;17.80;;;23.70;89.60;;;;;;5037675;28;20210;-72
2021/07/27 03:09:15;;;;;;;20.27;16.83;;;23.70;89.50;;;;;;5044277;28;20221;-72
2021/07/27 03:11:43;;;;;;;23.60;18.13;;;23.70;89.40;;;;;;5041149;28;20298;-72
2021/07/27 03:14:10;;;;;;;29.43;19.57;;;23.70;89.40;;;;;;5045001;28;20218;-72
2021/07/27 03:16:37;;;;;;;27.07;20.53;;;23.80;89.30;;;;;;5037386;28;20262;-72
2021/07/27 03:19:04;;;;;;;26.67;20.33;;;23.70;89.30;;;;;;5037275;28;20233;-72
2021/07/27 03:21:31;;;;;;;22.57;18.90;;;23.70;89.50;;;;;;5044785;28;20210;-72
2021/07/27 03:23:58;;;;;;;25.47;20.43;;;23.60;89.60;;;;;;5041007;28;20811;-72
2021/07/27 03:26:25;;;;;;;25.43;19.67;;;23.60;89.60;;;;;;5044057;28;20210;-72
2021/07/27 03:28:53;;;;;;;22.90;18.47;;;23.60;89.70;;;;;;5041181;28;20275;-72
2021/07/27 03:31:21;;;;;;;23.03;20.47;;;23.50;89.90;;;;;;5043051;28;20616;-72
2021/07/27 03:33:48;;;;;;;25.77;20.07;;;23.50;90.00;;;;;;5041475;28;20243;-72
2021/07/27 03:36:15;;;;;;;23.83;19.07;;;23.50;90.10;;;;;;5043647;28;20681;-72
2021/07/27 03:38:42;;;;;;;26.57;19.87;;;23.50;90.10;;;;;;5039259;28;20808;-72
2021/07/27 03:41:10;;;;;;;24.23;20.07;;;23.60;90.10;;;;;;5041789;28;20210;-72
2021/07/27 03:43:38;;;;;;;26.57;19.33;;;23.60;90.10;;;;;;5043227;28;20607;-72
2021/07/27 03:46:07;;;;;;;29.67;21.57;;;23.60;90.00;;;;;;5041448;28;20666;-72
2021/07/27 03:48:34;;;;;;;27.87;20.33;;;23.60;90.00;;;;;;5043600;28;20246;-72
2021/07/27 03:51:01;;;;;;;25.90;21.00;;;23.60;90.00;;;;;;5041475;28;20594;-72
2021/07/27 03:53:28;;;;;;;29.20;20.50;;;23.60;90.00;;;;;;5042836;28;20242;-72
2021/07/27 03:55:56;;;;;;;23.93;21.10;;;23.60;90.00;;;;;;5041661;28;20626;-72
2021/07/27 03:58:22;;;;;;;23.83;21.33;;;23.60;90.00;;;;;;5042729;28;20215;-72
2021/07/27 04:00:49;;;;;;;31.50;21.97;;;23.60;90.00;;;;;;5042002;28;20640;-72
2021/07/27 04:03:17;;;;;;;29.30;21.80;;;23.70;90.00;;;;;;5042273;28;20604;-72
2021/07/27 04:05:44;;;;;;;25.20;21.80;;;23.70;90.00;;;;;;5044347;28;20213;-72
2021/07/27 04:08:12;;;;;;;28.00;22.07;;;23.60;90.00;;;;;;5039434;28;20619;-72
2021/07/27 04:10:40;;;;;;;31.40;22.93;;;23.60;90.00;;;;;;5042501;28;20222;-72
2021/07/27 04:13:07;;;;;;;27.23;22.37;;;23.60;90.00;;;;;;5041964;28;20254;-72
2021/07/27 04:15:40;;;;;;;28.17;23.73;;;23.60;90.00;;;;;;5042539;28;20287;-72
2021/07/27 04:18:07;;;;;;;27.40;22.23;;;23.50;90.10;;;;;;5042759;28;20226;-72
2021/07/27 04:20:34;;;;;;;26.60;21.10;;;23.50;90.50;;;;;;5042174;28;20206;-72
2021/07/27 04:23:01;;;;;;;32.83;24.43;;;23.50;90.30;;;;;;5042433;28;20284;-72
2021/07/27 04:25:30;;;;;;;30.70;23.07;;;23.50;90.30;;;;;;5042289;28;20214;-72
2021/07/27 04:27:56;;;;;;;31.13;23.20;;;23.50;90.30;;;;;;5042030;28;20599;-72
2021/07/27 04:30:24;;;;;;;27.50;21.17;;;23.50;90.30;;;;;;5042209;28;20291;-72
2021/07/27 04:32:51;;;;;;;26.00;22.83;;;23.50;90.40;;;;;;5041525;28;20243;-72
2021/07/27 04:35:18;;;;;;;26.37;21.83;;;23.60;90.40;;;;;;5042688;28;20267;-72
2021/07/27 04:37:45;;;;;;;29.83;23.13;;;23.60;90.30;;;;;;5043679;28;20253;-72
2021/07/27 04:40:12;;;;;;;31.00;23.10;;;23.60;90.30;;;;;;5044664;28;20320;-72
2021/07/27 04:42:41;;;;;;;30.03;22.57;;;23.70;90.40;;;;;;5046877;28;20268;-72
2021/07/27 04:45:08;;;;;;;24.07;20.83;;;23.70;90.40;;;;;;5044952;28;20218;-72
2021/07/27 04:47:35;;;;;;;25.77;22.17;;;23.70;90.30;;;;;;5047313;28;20210;-72
2021/07/27 04:50:04;;;;;;;26.10;22.90;;;23.80;90.30;;;;;;5044452;28;20328;-72
2021/07/27 04:52:31;;;;;;;31.10;24.10;;;23.80;90.30;;;;;;5046904;28;20292;-72
2021/07/27 04:54:58;;;;;;;39.13;24.80;;;23.80;90.30;;;;;;5044528;28;20670;-72
2021/07/27 04:57:25;;;;;;;27.67;23.00;;;23.90;90.40;;;;;;5046960;28;20214;-72
2021/07/27 04:59:52;;;;;;;35.47;26.30;;;23.90;90.40;;;;;;5043938;28;20211;-73
2021/07/27 05:02:22;;;;;;;32.73;24.80;;;23.80;90.40;;;;;;5047191;28;20272;-72
2021/07/27 05:04:49;;;;;;;37.03;25.60;;;23.90;90.40;;;;;;5043858;28;20265;-72
2021/07/27 05:07:15;;;;;;;37.50;27.03;;;23.80;90.50;;;;;;5047070;28;20221;-72
2021/07/27 05:09:42;;;;;;;42.00;28.00;;;23.80;90.60;;;;;;5043501;28;20644;-72
2021/07/27 05:12:10;;;;;;;32.17;27.03;;;23.80;90.70;;;;;;5040341;28;20219;-72
2021/07/27 05:14:37;;;;;;;35.40;27.90;;;23.70;90.70;;;;;;5040758;28;20231;-72
2021/07/27 05:17:09;;;;;;;43.20;29.87;;;23.70;90.90;;;;;;5047472;28;20256;-72
2021/07/27 05:19:36;;;;;;;33.80;27.93;;;23.70;91.00;;;;;;5039901;28;20218;-72
2021/07/27 05:22:04;;;;;;;36.10;28.47;;;23.70;91.20;;;;;;5046941;28;20268;-72
2021/07/27 05:24:30;;;;;;;37.13;26.87;;;23.70;91.30;;;;;;5039747;28;20230;-72
2021/07/27 05:26:57;;;;;;;37.87;28.57;;;23.70;91.30;;;;;;5038511;28;20276;-72
2021/07/27 05:29:25;;;;;;;39.00;27.57;;;23.60;91.30;;;;;;5046735;28;20674;-72
2021/07/27 05:31:51;;;;;;;42.80;29.87;;;23.60;91.40;;;;;;5043397;28;20281;-72
2021/07/27 05:34:19;;;;;;;39.50;28.07;;;23.60;91.50;;;;;;5046374;28;20256;-72
2021/07/27 05:36:45;;;;;;;45.60;29.47;;;23.60;91.60;;;;;;5043541;28;20268;-72
2021/07/27 05:39:12;;;;;;;33.83;27.43;;;23.50;91.60;;;;;;5042462;28;20249;-72
2021/07/27 05:41:40;;;;;;;40.90;29.97;;;23.40;91.70;;;;;;5045670;28;20214;-72
2021/07/27 05:44:07;;;;;;;44.27;28.43;;;23.40;91.80;;;;;;5043994;28;20222;-72
2021/07/27 05:46:34;;;;;;;38.83;29.17;;;23.40;91.90;;;;;;5045292;28;20219;-72
2021/07/27 05:49:03;;;;;;;40.97;28.60;;;23.30;92.00;;;;;;5042924;28;20211;-72
2021/07/27 05:51:31;;;;;;;38.57;29.13;;;23.30;92.10;;;;;;5045423;28;20230;-72
2021/07/27 05:53:57;;;;;;;33.67;27.63;;;23.40;92.10;;;;;;5043757;28;20239;-72
2021/07/27 05:56:24;;;;;;;35.37;27.57;;;23.40;92.20;;;;;;5045163;28;20210;-72
2021/07/27 05:58:53;;;;;;;36.67;27.33;;;23.40;92.20;;;;;;5044375;28;20578;-72
2021/07/27 06:01:19;;;;;;;38.37;28.17;;;23.50;92.20;;;;;;5044602;28;20277;-72
2021/07/27 06:03:47;;;;;;;33.90;27.20;;;23.60;92.20;;;;;;5044286;28;20230;-73
2021/07/27 06:06:14;;;;;;;35.87;28.00;;;23.60;92.10;;;;;;5044392;28;20229;-73
2021/07/27 06:08:40;;;;;;;43.07;28.43;;;23.70;92.00;;;;;;5042100;28;20229;-73
2021/07/27 06:11:07;;;;;;;33.97;27.90;;;23.70;92.30;;;;;;5043813;28;20223;-73
2021/07/27 06:13:35;;;;;;;37.00;29.57;;;23.80;92.10;;;;;;5044759;28;20319;-73
2021/07/27 06:16:03;;;;;;;39.70;28.83;;;23.90;92.10;;;;;;5045846;28;20628;-73
2021/07/27 06:18:31;;;;;;;34.10;29.00;;;24.10;91.90;;;;;;5044801;28;20270;-73
2021/07/27 06:21:00;;;;;;;36.60;29.63;;;24.20;91.70;;;;;;5043491;28;20288;-73
2021/07/27 06:23:27;;;;;;;38.87;29.37;;;24.40;91.60;;;;;;5044511;28;20210;-73
2021/07/27 06:25:54;;;;;;;32.07;28.60;;;24.60;91.50;;;;;;5043213;28;20272;-73
2021/07/27 06:28:21;;;;;;;35.37;28.13;;;24.70;91.40;;;;;;5044853;28;20221;-73
2021/07/27 06:30:48;;;;;;;33.53;27.53;;;24.80;91.20;;;;;;5043160;28;20606;-73
2021/07/27 06:33:15;;;;;;;33.33;27.53;;;24.90;91.00;;;;;;5044913;28;20616;-73
2021/07/27 06:35:42;;;;;;;36.10;28.13;;;25.00;91.00;;;;;;5042551;28;20211;-73
2021/07/27 06:38:09;;;;;;;32.47;26.53;;;25.10;90.90;;;;;;5041457;28;20230;-73
2021/07/27 06:40:36;;;;;;;32.67;26.20;;;25.30;90.70;;;;;;5045011;28;20246;-73
2021/07/27 06:43:03;;;;;;;29.63;24.60;;;25.40;90.50;;;;;;5041851;28;20215;-73
2021/07/27 06:45:30;;;;;;;33.97;23.40;;;25.40;90.30;;;;;;5045523;28;20215;-74
2021/07/27 06:47:57;;;;;;;31.13;23.47;;;25.60;90.20;;;;;;5038052;28;20272;-74
2021/07/27 06:50:26;;;;;;;34.13;23.27;;;25.60;90.00;;;;;;5037859;28;20226;-74
2021/07/27 06:52:53;;;;;;;30.47;23.13;;;25.70;89.80;;;;;;5037971;28;20230;-75
2021/07/27 06:55:21;;;;;;;30.53;23.77;;;25.80;89.50;;;;;;5037729;28;20215;-74
2021/07/27 06:57:52;;;;;;;34.40;23.77;;;25.80;89.20;;;;;;5038056;28;20266;-74
2021/07/27 07:00:19;;;;;;;30.83;21.90;;;25.90;88.70;;;;;;5045121;28;20206;-74
2021/07/27 07:02:46;;;;;;;31.60;22.17;;;25.90;88.40;;;;;;5037783;28;20214;-74
2021/07/27 07:05:13;;;;;;;33.40;22.77;;;25.90;88.30;;;;;;5037595;28;20211;-74
2021/07/27 07:07:40;;;;;;;31.87;22.47;;;26.00;88.30;;;;;;5041261;28;20639;-74
2021/07/27 07:10:08;;;;;;;29.30;23.10;;;26.10;88.20;;;;;;5044634;28;20222;-74
2021/07/27 07:12:35;;;;;;;26.23;20.37;;;26.30;88.00;;;;;;5041602;28;20589;-74
2021/07/27 07:15:03;;;;;;;26.53;22.30;;;26.40;86.30;;;;;;5043460;28;20241;-74
2021/07/27 07:17:30;;;;;;;27.10;21.77;;;26.60;85.80;;;;;;5041603;28;20219;-74
2021/07/27 07:20:02;;;;;;;26.30;20.27;;;26.70;85.10;;;;;;5037325;28;20234;-74
2021/07/27 07:22:30;;;;;;;27.13;19.53;;;26.90;84.70;;;;;;5044739;28;20638;-74
2021/07/27 07:24:57;;;;;;;26.87;20.57;;;27.10;84.80;;;;;;5041172;28;20218;-74
2021/07/27 07:27:24;;;;;;;29.00;19.63;;;27.50;84.40;;;;;;5043441;28;20218;-74
2021/07/27 07:29:55;;;;;;;28.83;19.57;;;27.80;83.60;;;;;;5041260;28;20227;-74
2021/07/27 07:32:21;;;;;;;24.00;17.73;;;28.20;82.60;;;;;;5044903;28;20214;-74
2021/07/27 07:34:49;;;;;;;22.90;17.23;;;28.30;81.20;;;;;;5041019;28;20238;-75
2021/07/27 07:37:16;;;;;;;23.57;17.83;;;28.40;79.50;;;;;;5043560;28;20221;-74
2021/07/27 07:39:43;;;;;;;29.93;17.97;;;28.40;79.60;;;;;;5040666;28;20549;-74
2021/07/27 07:42:10;;;;;;;24.03;16.90;;;28.20;78.60;;;;;;5041969;28;20556;-74
2021/07/27 07:44:37;;;;;;;28.93;18.00;;;28.00;79.20;;;;;;5043672;28;20214;-74
2021/07/27 07:47:04;;;;;;;21.60;17.37;;;27.80;79.80;;;;;;5041536;28;20229;-74
2021/07/27 07:49:31;;;;;;;22.57;16.67;;;27.70;79.80;;;;;;5043150;28;20222;-74
2021/07/27 07:51:58;;;;;;;25.63;17.70;;;27.60;80.50;;;;;;5041730;28;20214;-74
2021/07/27 07:54:26;;;;;;;24.40;18.10;;;27.50;80.70;;;;;;5042785;28;20259;-74
2021/07/27 07:56:53;;;;;;;24.60;16.73;;;27.50;80.80;;;;;;5042095;28;20657;-74
2021/07/27 07:59:20;;;;;;;25.40;16.40;;;27.50;81.30;;;;;;5042480;28;20288;-74
2021/07/27 08:01:55;;;;;;;28.27;16.70;;;27.50;80.60;;;;;;5042211;28;20218;-74
2021/07/27 08:04:24;;;;;;;24.83;16.83;;;27.50;80.70;;;;;;5043527;28;20226;-74
2021/07/27 08:06:52;;;;;;;23.03;14.87;;;27.70;80.40;;;;;;5041056;28;20215;-74
2021/07/27 08:09:19;;;;;;;22.47;16.43;;;27.80;79.60;;;;;;5040527;28;20246;-75
2021/07/27 08:11:46;;;;;;;25.33;16.50;;;27.90;79.10;;;;;;5042418;28;20587;-75
2021/07/27 08:14:13;;;;;;;23.93;16.47;;;28.00;78.70;;;;;;5041324;28;20308;-75
2021/07/27 08:16:41;;;;;;;24.73;15.00;;;28.00;78.80;;;;;;5043308;28;20219;-74
2021/07/27 08:19:08;;;;;;;19.90;14.00;;;28.20;79.00;;;;;;5041402;28;20210;-74
2021/07/27 08:21:35;;;;;;;28.50;15.80;;;28.40;79.20;;;;;;5042666;28;20230;-74
2021/07/27 08:24:02;;;;;;;32.30;14.93;;;28.60;78.80;;;;;;5041779;28;20686;-74
2021/07/27 08:26:29;;;;;;;27.77;13.00;;;28.70;77.30;;;;;;5042524;28;20223;-74
2021/07/27 08:28:56;;;;;;;20.67;12.80;;;28.80;76.00;;;;;;5042146;28;20359;-74
2021/07/27 08:31:23;;;;;;;21.93;13.20;;;28.70;75.90;;;;;;5041934;28;20277;-74
2021/07/27 08:33:51;;;;;;;19.30;12.13;;;28.80;75.80;;;;;;5042130;28;20242;-74
2021/07/27 08:36:18;;;;;;;19.10;10.90;;;28.80;75.40;;;;;;5042034;28;20226;-74
2021/07/27 08:54:39;;;;;;;16.73;8.77;;;29.00;73.60;;;;;;5105178;27;20545;-71
2021/07/27 08:57:13;;;;;;;16.50;8.60;;;29.90;73.80;;;;;;5076702;28;20225;-71
2021/07/27 08:59:41;;;;;;;19.83;7.50;;;30.20;70.90;;;;;;5096123;28;20220;-71
2021/07/27 09:02:08;;;;;;;18.47;8.23;;;30.20;68.40;;;;;;5098514;28;20247;-71
2021/07/27 09:04:36;;;;;;;16.83;6.80;;;30.10;68.80;;;;;;5100723;28;20223;-71
2021/07/27 09:07:05;;;;;;;17.33;7.10;;;29.80;69.30;;;;;;5093918;28;20197;-71
2021/07/27 09:09:34;;;;;;;12.10;6.80;;;29.80;69.50;;;;;;5099954;28;20212;-71
2021/07/27 09:12:03;;;;;;;16.50;7.50;;;29.70;69.10;;;;;;5100874;28;20244;-71
2021/07/27 09:14:30;;;;;;;20.97;7.57;;;29.50;68.00;;;;;;5079394;28;20217;-71
2021/07/27 09:16:58;;;;;;;17.93;7.83;;;29.30;69.30;;;;;;5098384;28;20220;-71
2021/07/27 09:19:26;;;;;;;15.40;6.83;;;29.10;70.00;;;;;;5098921;28;20213;-71
2021/07/27 09:22:05;;;;;;;18.37;7.37;;;28.90;70.90;;;;;;5099578;28;20212;-71
2021/07/27 09:24:35;;;;;;;18.63;6.70;;;28.80;71.30;;;;;;5096689;28;20215;-71
2021/07/27 09:27:05;;;;;;;14.17;7.30;;;28.60;71.50;;;;;;5099603;28;20629;-71
2021/07/27 09:29:42;;;;;;;20.60;7.83;;;28.60;71.70;;;;;;5079305;28;20209;-71
2021/07/27 09:32:21;;;;;;;9.53;6.20;;;28.40;71.80;;;;;;5101043;28;20547;-71
2021/07/27 09:34:48;;;;;;;16.17;7.90;;;28.50;72.40;;;;;;5094901;28;20270;-71
2021/07/27 09:37:25;;;;;;;16.80;6.33;;;28.50;72.60;;;;;;5101124;28;20213;-71
2021/07/27 09:40:04;;;;;;;15.97;6.40;;;28.60;73.10;;;;;;5093423;28;20212;-71
2021/07/27 09:42:31;;;;;;;16.10;6.97;;;28.70;72.60;;;;;;5098048;28;20228;-71
2021/07/27 09:44:59;;;;;;;16.77;6.47;;;29.00;72.30;;;;;;5096227;28;20221;-71
2021/07/27 09:47:26;;;;;;;14.40;7.10;;;29.30;72.00;;;;;;5081723;28;20209;-71
2021/07/27 09:49:55;;;;;;;16.10;7.43;;;29.80;70.80;;;;;;5080678;28;20205;-71
2021/07/27 10:05:37;;;;;;;16.00;6.83;;;30.40;66.70;;;;;;5122387;27;20286;-73
2021/07/27 10:08:04;;;;;;;13.50;7.23;;;30.70;67.70;;;;;;5110243;28;20223;-73
2021/07/27 10:10:38;;;;;;;12.43;6.50;;;31.10;66.60;;;;;;5110200;28;20212;-73
2021/07/27 10:13:10;;;;;;;15.03;6.77;;;31.30;65.20;;;;;;5110026;28;20586;-73
2021/07/27 10:15:43;;;;;;;14.17;7.13;;;31.40;65.40;;;;;;5106196;28;20209;-73
2021/07/27 10:18:11;;;;;;;11.67;6.17;;;31.60;65.60;;;;;;5110409;28;20219;-73
2021/07/27 10:20:40;;;;;;;14.87;6.67;;;31.90;63.70;;;;;;5110254;28;20220;-74
2021/07/27 10:23:20;;;;;;;16.70;7.13;;;32.20;61.00;;;;;;5106591;28;20227;-73
2021/07/27 10:25:59;;;;;;;11.17;6.57;;;32.20;60.10;;;;;;5109643;28;20208;-73
2021/07/27 10:28:27;;;;;;;15.60;6.60;;;31.80;60.20;;;;;;5109661;28;20219;-73
2021/07/27 10:31:05;;;;;;;15.10;7.20;;;31.50;60.40;;;;;;5109653;28;20281;-73
2021/07/27 10:33:33;;;;;;;16.43;6.70;;;31.20;61.60;;;;;;5109521;28;20251;-73
2021/07/27 10:36:00;;;;;;;13.30;6.53;;;30.90;62.30;;;;;;5109561;28;20213;-73
2021/07/27 10:38:39;;;;;;;13.17;7.10;;;30.80;62.10;;;;;;5091949;28;20212;-73
2021/07/27 10:41:16;;;;;;;13.03;6.80;;;31.10;63.70;;;;;;5109309;28;20647;-73
2021/07/27 10:43:44;;;;;;;12.03;6.10;;;31.60;62.30;;;;;;5106881;28;20591;-73
2021/07/27 10:46:11;;;;;;;15.20;7.33;;;31.90;61.40;;;;;;5109279;28;20630;-73
2021/07/27 10:48:39;;;;;;;12.97;6.00;;;31.90;61.90;;;;;;5109402;28;20212;-73
2021/07/27 10:51:09;;;;;;;12.47;5.73;;;32.00;59.30;;;;;;5105724;28;20216;-73
2021/07/27 10:53:36;;;;;;;13.77;6.57;;;32.10;58.70;;;;;;5109308;28;20255;-73
2021/07/27 10:56:08;;;;;;;19.97;5.97;;;32.10;59.30;;;;;;5109058;28;20213;-73
2021/07/27 10:58:35;;;;;;;9.70;6.00;;;32.20;57.30;;;;;;5105649;28;20213;-73
2021/07/27 11:01:11;;;;;;;15.33;5.87;;;32.30;57.20;;;;;;5109300;28;20212;-73
2021/07/27 11:03:41;;;;;;;14.67;6.20;;;32.30;56.70;;;;;;5104548;28;20277;-73
2021/07/27 11:06:08;;;;;;;17.23;7.30;;;32.50;57.20;;;;;;5076955;28;20613;-73
2021/07/27 11:08:35;;;;;;;15.07;6.10;;;32.70;57.00;;;;;;5074773;28;20222;-73
2021/07/27 11:11:07;;;;;;;12.77;6.53;;;32.90;57.10;;;;;;5074588;28;20218;-73
2021/07/27 11:13:35;;;;;;;8.43;5.97;;;33.10;57.40;;;;;;5074770;28;20281;-73
2021/07/27 11:16:03;;;;;;;18.67;6.87;;;33.20;56.10;;;;;;5074924;28;20630;-73
2021/07/27 11:18:31;;;;;;;15.67;6.17;;;33.10;55.90;;;;;;5074952;28;20214;-73
2021/07/27 11:20:59;;;;;;;13.47;6.23;;;33.10;57.00;;;;;;5071101;28;20237;-73
2021/07/27 11:23:33;;;;;;;15.80;6.67;;;33.00;56.40;;;;;;5074247;28;20222;-73
2021/07/27 11:26:00;;;;;;;14.70;6.37;;;32.90;55.00;;;;;;5070644;28;20464;-73
2021/07/27 11:28:36;;;;;;;13.77;6.23;;;32.80;56.60;;;;;;5070746;28;20252;-73
2021/07/27 11:31:24;;;;;;;12.93;6.50;;;32.80;56.80;;;;;;5056824;28;20244;-73
2021/07/27 11:33:53;;;;;;;15.30;6.87;;;32.90;56.70;;;;;;5072773;28;20252;-73
2021/07/27 11:36:24;;;;;;;14.13;6.63;;;32.90;56.60;;;;;;5074325;28;20236;-73
2021/07/27 11:38:51;;;;;;;17.17;6.20;;;32.90;57.00;;;;;;5074063;28;20237;-73
2021/07/27 11:41:20;;;;;;;12.70;6.90;;;33.00;57.20;;;;;;5074410;28;20224;-73
2021/07/27 11:43:49;;;;;;;14.43;7.07;;;33.00;56.00;;;;;;5074114;28;20218;-73
2021/07/27 11:46:18;;;;;;;10.63;6.17;;;32.80;56.10;;;;;;5074025;28;20210;-73
2021/07/27 11:48:55;;;;;;;17.50;6.63;;;32.60;55.30;;;;;;5074040;28;20214;-73
2021/07/27 11:51:32;;;;;;;11.13;5.93;;;32.50;56.20;;;;;;5070712;28;20221;-73
2021/07/27 11:53:59;;;;;;;12.60;6.00;;;32.70;56.70;;;;;;5073685;28;20669;-73
2021/07/27 11:56:27;;;;;;;13.53;6.00;;;32.90;56.10;;;;;;5070781;28;20209;-73
2021/07/27 11:59:05;;;;;;;14.67;5.63;;;33.10;55.00;;;;;;5073001;28;20206;-72
2021/07/27 12:01:40;;;;;;;11.63;6.27;;;33.10;54.70;;;;;;5073087;28;20228;-72
2021/07/27 12:04:07;;;;;;;11.90;6.10;;;33.20;54.50;;;;;;5073399;28;20684;-72
2021/07/27 12:06:54;;;;;;;15.33;6.10;;;33.40;54.10;;;;;;5073655;28;20626;-72
2021/07/27 12:09:24;;;;;;;16.30;6.13;;;33.50;54.60;;;;;;5072175;28;20218;-72
2021/07/27 12:11:52;;;;;;;15.53;5.70;;;33.60;54.00;;;;;;5073414;28;20217;-72
2021/07/27 12:18:01;;;;;;;12.47;6.13;;;33.50;54.40;;;;;;5069190;28;20200;-72
2021/07/27 12:20:32;;;;;;;12.97;6.57;;;33.40;54.20;;;;;;5073656;28;20221;-72
2021/07/27 12:22:59;;;;;;;7.47;6.03;;;33.30;54.60;;;;;;5073331;28;20535;-72
2021/07/27 12:25:26;;;;;;;21.47;6.50;;;33.30;54.80;;;;;;5068324;28;20225;-72
2021/07/27 12:27:53;;;;;;;15.03;7.10;;;33.30;54.80;;;;;;5073051;28;20222;-72
2021/07/27 12:30:20;;;;;;;12.70;5.80;;;33.40;52.60;;;;;;5073313;28;20221;-72
2021/07/27 12:32:47;;;;;;;13.47;6.60;;;33.40;52.60;;;;;;5073182;28;20217;-72
2021/07/27 12:35:15;;;;;;;11.07;5.97;;;33.40;52.20;;;;;;5069176;28;20245;-72
2021/07/27 12:37:42;;;;;;;15.37;6.37;;;33.50;53.00;;;;;;5055588;28;20531;-72
2021/07/27 12:40:10;;;;;;;8.70;5.17;;;33.60;52.20;;;;;;5072937;28;20571;-72
2021/07/27 12:42:37;;;;;;;14.73;5.83;;;33.60;51.20;;;;;;5072943;28;20228;-71
2021/07/27 12:45:04;;;;;;;12.83;5.83;;;33.60;52.50;;;;;;5069097;28;20760;-71
2021/07/27 12:47:34;;;;;;;17.27;5.40;;;33.50;51.90;;;;;;5072938;28;20221;-72
2021/07/27 12:50:04;;;;;;;11.03;5.40;;;33.40;52.00;;;;;;5072576;28;20635;-72
2021/07/27 12:52:31;;;;;;;10.33;5.87;;;33.40;52.40;;;;;;5068878;28;20206;-72
2021/07/27 12:54:58;;;;;;;11.47;5.93;;;33.50;51.80;;;;;;5072471;28;20237;-71
2021/07/27 12:57:25;;;;;;;12.10;5.13;;;33.50;52.40;;;;;;5072595;28;20604;-72
2021/07/27 12:59:52;;;;;;;10.53;5.80;;;33.50;52.70;;;;;;5072504;28;20214;-71
2021/07/27 13:02:22;;;;;;;12.00;5.60;;;33.40;53.10;;;;;;5068752;28;20410;-72
2021/07/27 13:04:51;;;;;;;10.77;4.90;;;33.30;53.20;;;;;;5072190;28;20255;-71
2021/07/27 13:07:18;;;;;;;14.00;5.70;;;33.10;53.00;;;;;;5072934;28;20223;-71
2021/07/27 13:09:45;;;;;;;9.70;5.40;;;33.10;52.60;;;;;;5072405;28;20655;-71
2021/07/27 13:12:12;;;;;;;14.23;5.70;;;33.10;52.40;;;;;;5072560;28;20218;-71
2021/07/27 13:14:39;;;;;;;13.23;5.93;;;33.10;52.20;;;;;;5072329;28;20236;-71
2021/07/27 13:17:06;;;;;;;13.13;5.23;;;33.00;52.70;;;;;;5072298;28;20391;-71
2021/07/27 13:19:33;;;;;;;11.23;5.13;;;32.90;52.80;;;;;;5072481;28;20236;-71
2021/07/27 13:22:05;;;;;;;7.33;5.10;;;32.80;52.90;;;;;;5072142;28;20251;-71
2021/07/27 13:24:35;;;;;;;13.13;4.90;;;32.80;53.00;;;;;;5069404;28;20214;-72
2021/07/27 13:27:02;;;;;;;9.73;5.27;;;32.70;53.50;;;;;;5072013;28;20221;-71
2021/07/27 13:29:30;;;;;;;9.10;5.23;;;32.60;53.20;;;;;;5071903;28;20213;-71